Time;durP1;ratioP1;P1;durP2;ratioP2;P2;SDS_P1;SDS_P2;PMS_P1;PMS_P2;Temp;Humidity;BMP_temperature;BMP_pressure;BME280_temperature;BME280_humidity;BME280_pressure;Samples;Min_cycle;Max_cycle;Signal;HPM_P1;HPM_P2
2024/04/14 00:01:08;;;;;;;4.00;3.60;;;14.90;82.30;;;;;;5377462;26;20557;-80
2024/04/14 00:03:34;;;;;;;3.27;2.97;;;14.90;83.60;;;;;;5390292;26;20642;-80
2024/04/14 00:06:03;;;;;;;3.90;3.30;;;14.90;81.20;;;;;;5388186;26;20560;-80
2024/04/14 00:08:29;;;;;;;6.33;3.20;;;14.90;81.90;;;;;;5386989;26;20544;-81
2024/04/14 00:10:59;;;;;;;2.90;2.70;;;14.90;80.90;;;;;;5388304;26;20623;-82
2024/04/14 00:13:28;;;;;;;7.03;4.40;;;14.90;79.50;;;;;;5381070;26;20619;-81
2024/04/14 00:16:03;;;;;;;3.83;2.83;;;14.90;80.40;;;;;;5380817;26;20662;-81
2024/04/14 00:18:29;;;;;;;3.10;2.83;;;14.90;79.40;;;;;;5376966;26;20566;-80
2024/04/14 00:20:58;;;;;;;3.40;2.87;;;14.90;78.20;;;;;;5382947;26;20579;-81
2024/04/14 00:23:25;;;;;;;2.50;2.30;;;14.90;79.20;;;;;;5385462;26;21535;-81
2024/04/14 00:25:54;;;;;;;3.37;3.03;;;14.90;78.60;;;;;;5378252;26;20725;-82
2024/04/14 00:28:20;;;;;;;4.50;3.13;;;15.00;77.60;;;;;;5376374;26;20561;-80
2024/04/14 00:30:52;;;;;;;3.40;2.80;;;14.90;77.80;;;;;;5377157;26;20594;-80
2024/04/14 00:33:18;;;;;;;2.80;2.60;;;15.00;77.70;;;;;;5381991;26;21041;-80
2024/04/14 00:35:47;;;;;;;3.00;2.50;;;15.00;77.50;;;;;;5390221;26;20623;-81
2024/04/14 00:38:13;;;;;;;2.90;2.60;;;15.00;77.90;;;;;;5366919;26;20557;-80
2024/04/14 00:40:42;;;;;;;3.00;2.63;;;15.00;76.90;;;;;;5385260;26;20563;-80
2024/04/14 00:43:14;;;;;;;5.20;2.97;;;15.00;78.00;;;;;;5376978;26;20605;-80
2024/04/14 00:45:43;;;;;;;5.27;2.43;;;14.90;78.00;;;;;;5370856;26;20620;-80
2024/04/14 00:48:12;;;;;;;2.53;2.33;;;15.00;76.00;;;;;;5376851;26;20544;-81
2024/04/14 00:50:42;;;;;;;2.87;2.67;;;14.90;77.20;;;;;;5392611;26;20552;-81
2024/04/14 00:53:09;;;;;;;3.27;2.97;;;14.90;78.70;;;;;;5384100;26;20550;-80
2024/04/14 00:55:39;;;;;;;2.83;2.63;;;14.70;78.50;;;;;;5379941;26;21177;-81
2024/04/14 00:58:05;;;;;;;3.63;3.20;;;14.70;79.10;;;;;;5376379;26;21010;-80
2024/04/14 01:00:35;;;;;;;3.57;2.87;;;14.70;79.10;;;;;;5375564;26;20989;-80
2024/04/14 01:03:02;;;;;;;3.03;2.83;;;14.60;79.30;;;;;;5375237;26;20556;-80
2024/04/14 01:05:34;;;;;;;3.50;3.07;;;14.60;79.80;;;;;;5376203;26;20588;-81
2024/04/14 01:08:00;;;;;;;2.73;2.53;;;14.60;79.80;;;;;;5389671;26;21131;-81
2024/04/14 01:10:29;;;;;;;2.50;2.30;;;14.60;79.00;;;;;;5386558;26;20593;-81
2024/04/14 01:12:55;;;;;;;4.00;3.30;;;14.50;79.10;;;;;;5376049;26;20559;-81
2024/04/14 01:15:24;;;;;;;5.00;2.53;;;14.60;79.10;;;;;;5376120;26;20675;-81
2024/04/14 01:17:52;;;;;;;3.17;2.80;;;14.50;79.80;;;;;;5385237;26;20556;-82
2024/04/14 01:20:22;;;;;;;2.57;2.37;;;14.40;79.80;;;;;;5377142;26;20635;-82
2024/04/14 01:22:52;;;;;;;3.43;2.83;;;14.50;79.90;;;;;;5376521;26;20605;-82
2024/04/14 01:25:25;;;;;;;2.87;2.23;;;14.40;79.80;;;;;;5376260;26;20553;-80
2024/04/14 01:27:52;;;;;;;2.87;2.67;;;14.40;79.90;;;;;;5391757;26;21086;-81
2024/04/14 01:30:23;;;;;;;3.00;2.70;;;14.30;79.50;;;;;;5381996;26;21021;-80
2024/04/14 01:32:50;;;;;;;2.73;2.53;;;14.40;79.60;;;;;;5380067;26;20550;-81
2024/04/14 01:35:20;;;;;;;2.80;2.60;;;14.20;80.50;;;;;;5389999;26;20604;-80
2024/04/14 01:37:47;;;;;;;3.67;3.00;;;14.20;80.70;;;;;;5378908;26;20556;-78
2024/04/14 01:40:17;;;;;;;16.33;3.67;;;14.10;80.70;;;;;;5380604;26;20554;-81
2024/04/14 01:42:46;;;;;;;2.80;2.60;;;14.10;81.30;;;;;;5380482;26;20597;-82
2024/04/14 01:45:16;;;;;;;4.23;3.27;;;14.00;82.20;;;;;;5358456;26;20556;-80
2024/04/14 01:47:44;;;;;;;3.37;3.07;;;14.10;82.10;;;;;;5379483;26;20611;-81
2024/04/14 01:50:13;;;;;;;5.25;3.00;;;14.00;81.90;;;;;;5387980;26;20487;-80
2024/04/14 01:52:41;;;;;;;2.83;2.63;;;14.00;82.20;;;;;;5388694;26;20283;-80
2024/04/14 01:55:10;;;;;;;3.67;3.00;;;13.90;81.50;;;;;;5386780;26;20557;-80
2024/04/14 01:57:37;;;;;;;3.03;2.83;;;13.90;81.60;;;;;;5379060;26;21253;-80
2024/04/14 02:00:11;;;;;;;3.30;3.00;;;13.90;82.60;;;;;;5378156;26;20870;-80
2024/04/14 02:02:38;;;;;;;2.80;2.60;;;13.80;82.40;;;;;;5378977;26;20638;-80
2024/04/14 02:05:07;;;;;;;3.33;3.03;;;13.80;82.70;;;;;;5379899;26;20679;-80
2024/04/14 02:07:33;;;;;;;3.27;2.97;;;13.60;82.70;;;;;;5379324;26;20549;-80
2024/04/14 02:10:04;;;;;;;2.93;2.73;;;13.40;83.10;;;;;;5381752;26;20553;-80
2024/04/14 02:12:30;;;;;;;4.07;3.40;;;13.40;83.30;;;;;;5378916;26;20594;-80
2024/04/14 02:15:00;;;;;;;3.23;3.03;;;13.40;83.40;;;;;;5383223;26;20561;-80
2024/04/14 02:17:30;;;;;;;3.30;2.93;;;13.30;83.50;;;;;;5379379;26;20614;-80
2024/04/14 02:20:01;;;;;;;2.90;2.70;;;13.10;84.00;;;;;;5392183;26;20611;-81
2024/04/14 02:22:29;;;;;;;3.33;3.00;;;13.10;84.50;;;;;;5380402;26;20559;-81
2024/04/14 02:24:58;;;;;;;3.03;2.83;;;13.10;84.00;;;;;;5385329;26;20566;-80
2024/04/14 02:27:26;;;;;;;2.60;2.50;;;13.10;84.40;;;;;;5384617;26;20541;-80
2024/04/14 02:29:56;;;;;;;5.40;3.53;;;13.20;84.50;;;;;;5377638;26;20557;-80
2024/04/14 02:32:23;;;;;;;2.80;2.60;;;13.20;84.50;;;;;;5388742;26;20540;-81
2024/04/14 02:34:56;;;;;;;4.13;2.90;;;13.20;84.20;;;;;;5384266;26;20548;-80
2024/04/14 02:37:23;;;;;;;3.90;2.90;;;13.30;84.10;;;;;;5372838;26;20559;-81
2024/04/14 02:39:53;;;;;;;3.47;2.73;;;13.30;83.70;;;;;;5383299;26;20636;-81
2024/04/14 02:42:21;;;;;;;3.03;2.70;;;13.30;83.60;;;;;;5390612;26;20574;-80
2024/04/14 02:44:51;;;;;;;2.97;2.67;;;13.40;80.50;;;;;;5380089;26;20863;-81
2024/04/14 02:47:19;;;;;;;2.50;2.30;;;13.50;81.40;;;;;;5385126;26;20697;-80
2024/04/14 02:49:49;;;;;;;3.67;2.93;;;13.50;80.80;;;;;;5379214;26;20568;-80
2024/04/14 02:52:19;;;;;;;2.70;2.50;;;13.60;79.90;;;;;;5378824;26;20549;-81
2024/04/14 02:54:49;;;;;;;2.70;2.50;;;13.60;80.10;;;;;;5377985;26;21124;-81
2024/04/14 02:57:16;;;;;;;2.57;2.37;;;13.60;79.20;;;;;;5391815;26;20551;-79
2024/04/14 02:59:46;;;;;;;2.60;2.40;;;13.60;78.80;;;;;;5380388;26;20803;-80
2024/04/14 03:02:13;;;;;;;2.70;2.50;;;13.60;80.50;;;;;;5382797;26;20553;-80
2024/04/14 03:04:41;;;;;;;3.47;3.20;;;13.70;78.50;;;;;;5374908;26;21234;-80
2024/04/14 03:07:08;;;;;;;2.87;2.27;;;13.60;79.30;;;;;;5388663;26;21196;-80
2024/04/14 03:09:39;;;;;;;2.80;2.60;;;13.60;80.00;;;;;;5380243;26;20558;-80
2024/04/14 03:12:06;;;;;;;3.03;2.73;;;13.60;80.70;;;;;;5378211;26;20532;-81
2024/04/14 03:14:35;;;;;;;4.03;2.43;;;13.60;80.70;;;;;;5397519;26;20557;-80
2024/04/14 03:17:01;;;;;;;2.83;2.43;;;13.60;80.10;;;;;;5397045;26;20989;-80
2024/04/14 03:19:30;;;;;;;2.50;2.30;;;13.60;79.90;;;;;;5386954;26;20613;-81
2024/04/14 03:21:56;;;;;;;3.77;3.00;;;13.60;79.80;;;;;;5381989;26;20590;-81
2024/04/14 03:24:25;;;;;;;3.27;2.97;;;13.60;78.90;;;;;;5377763;26;20550;-80
2024/04/14 03:26:58;;;;;;;5.90;3.27;;;13.60;79.10;;;;;;5379178;26;20553;-81
2024/04/14 03:29:26;;;;;;;2.97;2.67;;;13.60;80.10;;;;;;5367134;26;20635;-81
2024/04/14 03:31:53;;;;;;;2.40;2.20;;;13.60;79.10;;;;;;5380569;26;20636;-81
2024/04/14 03:34:21;;;;;;;2.50;2.40;;;13.60;78.40;;;;;;5377112;26;20601;-80
2024/04/14 03:36:50;;;;;;;2.57;2.20;;;13.60;78.80;;;;;;5378971;26;20591;-79
2024/04/14 03:39:19;;;;;;;2.77;2.23;;;13.60;78.30;;;;;;5378661;26;21137;-80
2024/04/14 03:41:48;;;;;;;2.73;2.50;;;13.60;77.70;;;;;;5379013;26;21132;-80
2024/04/14 03:44:19;;;;;;;2.73;2.47;;;13.70;78.20;;;;;;5370413;26;21036;-80
2024/04/14 03:46:48;;;;;;;2.53;2.33;;;13.70;78.00;;;;;;5391069;26;20538;-81
2024/04/14 03:49:17;;;;;;;2.80;2.47;;;13.70;78.70;;;;;;5371614;26;20608;-80
2024/04/14 03:51:43;;;;;;;3.30;3.00;;;13.60;77.60;;;;;;5379332;26;20565;-80
2024/04/14 03:54:12;;;;;;;2.30;2.10;;;13.60;78.90;;;;;;5376311;26;20574;-80
2024/04/14 03:56:38;;;;;;;2.63;2.40;;;13.60;79.20;;;;;;5380466;26;20703;-80
2024/04/14 03:59:07;;;;;;;2.00;1.90;;;13.60;78.80;;;;;;5383561;26;20543;-80
2024/04/14 04:01:38;;;;;;;2.43;2.23;;;13.60;77.40;;;;;;5382596;26;20542;-81
2024/04/14 04:04:05;;;;;;;2.50;2.30;;;13.60;79.00;;;;;;5378951;26;20898;-81
2024/04/14 04:06:33;;;;;;;4.10;2.07;;;13.60;78.10;;;;;;5376866;26;20608;-80
2024/04/14 04:09:00;;;;;;;2.30;2.10;;;13.60;78.80;;;;;;5377049;26;20547;-80
2024/04/14 04:11:28;;;;;;;2.50;2.30;;;13.50;78.70;;;;;;5376631;26;20948;-81
2024/04/14 04:13:55;;;;;;;3.17;2.87;;;13.60;78.20;;;;;;5378004;26;21184;-80
2024/04/14 04:16:23;;;;;;;2.63;2.30;;;13.50;78.50;;;;;;5377807;26;20627;-80
2024/04/14 04:18:52;;;;;;;2.63;2.43;;;13.50;78.80;;;;;;5381360;26;20552;-81
2024/04/14 04:21:21;;;;;;;4.90;2.33;;;13.50;79.20;;;;;;5382660;26;21113;-80
2024/04/14 04:23:48;;;;;;;3.73;3.43;;;13.50;78.10;;;;;;5379980;26;20555;-81
2024/04/14 04:26:17;;;;;;;3.57;2.77;;;13.50;79.20;;;;;;5378128;26;20618;-80
2024/04/14 04:28:43;;;;;;;2.37;2.17;;;13.50;78.30;;;;;;5382653;26;20603;-81
2024/04/14 04:31:14;;;;;;;2.70;2.40;;;13.50;79.10;;;;;;5377332;26;20614;-79
2024/04/14 04:33:41;;;;;;;2.63;2.43;;;13.40;79.10;;;;;;5383261;26;20548;-80
2024/04/14 04:36:13;;;;;;;2.27;2.07;;;13.50;78.80;;;;;;5377728;26;20654;-80
2024/04/14 04:38:39;;;;;;;3.40;2.40;;;13.40;79.40;;;;;;5378021;26;20546;-81
2024/04/14 04:41:10;;;;;;;3.20;2.47;;;13.40;80.20;;;;;;5379838;26;20569;-79
2024/04/14 04:43:37;;;;;;;2.33;2.13;;;13.30;80.30;;;;;;5377740;26;20554;-79
2024/04/14 04:46:06;;;;;;;3.53;3.23;;;13.30;80.30;;;;;;5387663;26;20611;-80
2024/04/14 04:48:33;;;;;;;3.70;2.77;;;13.40;79.80;;;;;;5375842;26;20564;-80
2024/04/14 04:51:02;;;;;;;2.63;2.43;;;13.40;79.80;;;;;;5366952;26;20601;-80
2024/04/14 04:53:31;;;;;;;2.63;2.43;;;13.30;79.90;;;;;;5378022;26;20560;-81
2024/04/14 04:56:00;;;;;;;2.43;2.27;;;12.60;79.60;;;;;;5385635;26;20595;-80
2024/04/14 04:58:26;;;;;;;2.60;2.40;;;13.30;81.30;;;;;;5375865;26;20550;-81
2024/04/14 05:00:56;;;;;;;2.63;2.43;;;13.20;81.20;;;;;;5373234;26;20673;-81
2024/04/14 05:03:23;;;;;;;2.70;2.20;;;13.30;81.60;;;;;;5386671;26;20611;-81
2024/04/14 05:05:58;;;;;;;2.50;2.27;;;13.30;81.50;;;;;;5377509;26;20935;-80
2024/04/14 05:08:27;;;;;;;2.90;2.43;;;13.30;80.70;;;;;;5376702;26;20544;-80
2024/04/14 05:10:58;;;;;;;3.77;2.77;;;13.30;82.80;;;;;;5376981;26;20537;-81
2024/04/14 05:13:27;;;;;;;2.60;2.40;;;13.30;82.90;;;;;;5393047;26;20574;-80
2024/04/14 05:15:54;;;;;;;4.43;2.90;;;13.20;82.70;;;;;;5372599;26;20606;-81
2024/04/14 05:18:23;;;;;;;2.40;2.20;;;13.20;83.40;;;;;;5374802;26;20561;-78
2024/04/14 05:20:50;;;;;;;2.67;2.33;;;13.20;84.30;;;;;;5357256;26;20605;-81
2024/04/14 05:23:19;;;;;;;3.40;2.10;;;13.20;83.90;;;;;;5392374;26;20943;-78
2024/04/14 05:25:48;;;;;;;2.10;2.00;;;13.30;83.30;;;;;;5374702;26;20941;-78
2024/04/14 05:28:20;;;;;;;2.60;2.40;;;13.40;82.00;;;;;;5364109;26;20591;-78
2024/04/14 05:30:46;;;;;;;3.53;3.23;;;13.60;81.60;;;;;;5365157;26;20945;-78
2024/04/14 05:33:15;;;;;;;2.50;2.30;;;13.60;81.30;;;;;;5361817;26;20589;-76
2024/04/14 05:35:51;;;;;;;2.90;2.70;;;13.70;81.90;;;;;;5395253;26;21114;-73
2024/04/14 05:38:20;;;;;;;3.10;2.90;;;13.80;82.00;;;;;;5368780;26;20554;-74
2024/04/14 05:40:46;;;;;;;2.40;2.20;;;13.90;82.60;;;;;;5376929;26;20547;-76
2024/04/14 05:43:15;;;;;;;4.03;2.37;;;14.00;81.60;;;;;;5375951;26;21105;-79
2024/04/14 05:45:44;;;;;;;2.83;2.53;;;14.10;80.40;;;;;;5378369;26;20580;-77
2024/04/14 05:48:13;;;;;;;3.00;2.60;;;14.20;82.70;;;;;;5380871;26;20553;-82
2024/04/14 05:50:40;;;;;;;2.80;2.50;;;14.20;82.50;;;;;;5392119;26;20896;-80
2024/04/14 05:53:08;;;;;;;2.20;2.00;;;14.30;82.30;;;;;;5375690;26;20938;-84
2024/04/14 05:55:35;;;;;;;3.20;2.63;;;14.30;82.30;;;;;;5380382;26;20567;-79
2024/04/14 05:58:03;;;;;;;2.20;2.00;;;14.40;81.80;;;;;;5374456;26;20551;-80
2024/04/14 06:00:30;;;;;;;2.97;2.17;;;14.50;82.70;;;;;;5383856;26;20545;-80
2024/04/14 06:03:02;;;;;;;3.10;2.67;;;14.50;85.00;;;;;;5375157;26;20886;-89
2024/04/14 06:05:28;;;;;;;2.23;2.03;;;14.60;84.50;;;;;;5370634;26;20632;-78
2024/04/14 06:07:57;;;;;;;2.70;2.50;;;14.60;85.10;;;;;;5381611;26;20664;-83
2024/04/14 06:10:24;;;;;;;2.97;2.77;;;14.70;85.80;;;;;;5389725;26;20556;-74
2024/04/14 06:12:53;;;;;;;2.97;2.77;;;14.70;85.10;;;;;;5378430;26;21140;-74
2024/04/14 06:15:19;;;;;;;2.60;2.40;;;14.90;85.90;;;;;;5383437;26;20588;-90
2024/04/14 06:17:48;;;;;;;2.60;2.40;;;14.90;86.20;;;;;;5378243;26;20593;-84
2024/04/14 06:20:17;;;;;;;2.60;2.40;;;15.00;87.20;;;;;;5381305;26;20601;-78
2024/04/14 06:22:46;;;;;;;2.80;2.40;;;15.10;85.90;;;;;;5369908;26;21128;-79
2024/04/14 06:25:12;;;;;;;2.77;2.50;;;15.20;86.00;;;;;;5390740;26;21129;-76
2024/04/14 06:27:41;;;;;;;2.80;2.60;;;15.20;85.90;;;;;;5388048;26;21139;-79
2024/04/14 06:30:08;;;;;;;3.30;3.00;;;15.30;85.00;;;;;;5372819;26;21175;-79
2024/04/14 06:32:40;;;;;;;2.77;2.57;;;15.30;87.30;;;;;;5365992;26;20600;-78
2024/04/14 06:35:06;;;;;;;2.53;2.07;;;15.30;86.10;;;;;;5375591;26;20646;-78
2024/04/14 06:37:38;;;;;;;2.73;2.53;;;15.40;86.10;;;;;;5381250;26;20941;-78
2024/04/14 06:40:05;;;;;;;3.20;2.50;;;15.40;87.30;;;;;;5374970;26;21107;-78
2024/04/14 06:42:34;;;;;;;2.83;2.63;;;15.50;88.40;;;;;;5394546;26;20600;-78
2024/04/14 06:45:00;;;;;;;2.07;1.97;;;15.70;85.80;;;;;;5407830;26;21139;-78
2024/04/14 06:47:29;;;;;;;2.87;2.63;;;15.70;86.40;;;;;;5377901;26;21179;-78
2024/04/14 06:49:55;;;;;;;3.50;3.20;;;15.90;84.90;;;;;;5378038;26;20652;-78
2024/04/14 06:52:24;;;;;;;3.83;2.60;;;16.00;85.00;;;;;;5379850;26;20643;-78
2024/04/14 06:54:53;;;;;;;2.50;2.30;;;16.20;84.20;;;;;;5382844;26;20551;-78
2024/04/14 06:57:22;;;;;;;2.77;2.57;;;16.30;82.70;;;;;;5382016;26;21130;-78
2024/04/14 06:59:48;;;;;;;2.37;2.17;;;16.40;78.50;;;;;;5385550;26;20555;-78
2024/04/14 07:02:17;;;;;;;2.40;2.20;;;16.60;75.30;;;;;;5377465;26;20557;-78
2024/04/14 07:04:43;;;;;;;1.80;1.70;;;16.80;77.20;;;;;;5368691;26;20556;-78
2024/04/14 07:07:12;;;;;;;2.30;2.10;;;16.90;75.60;;;;;;5376682;26;20568;-78
2024/04/14 07:09:38;;;;;;;2.17;1.97;;;17.00;76.00;;;;;;5378238;26;20563;-78
2024/04/14 07:12:10;;;;;;;2.13;1.90;;;17.10;75.60;;;;;;5393995;26;20601;-78
2024/04/14 07:14:36;;;;;;;3.30;2.13;;;17.20;75.20;;;;;;5393804;26;20611;-78
2024/04/14 07:17:06;;;;;;;2.00;1.90;;;17.30;75.40;;;;;;5376951;26;20612;-78
2024/04/14 07:19:32;;;;;;;3.43;2.47;;;17.40;74.90;;;;;;5381347;26;20918;-78
2024/04/14 07:22:01;;;;;;;3.60;2.33;;;17.50;73.40;;;;;;5390020;26;20676;-78
2024/04/14 07:24:27;;;;;;;2.63;2.20;;;17.60;73.50;;;;;;5386013;26;20599;-78
2024/04/14 07:26:56;;;;;;;2.40;2.20;;;17.70;74.10;;;;;;5380932;26;20665;-78
2024/04/14 07:29:25;;;;;;;1.97;1.83;;;17.70;74.60;;;;;;5376787;26;20581;-78
2024/04/14 07:31:53;;;;;;;2.40;2.20;;;17.70;73.50;;;;;;5371777;26;20601;-78
2024/04/14 07:34:20;;;;;;;2.73;2.43;;;17.70;73.60;;;;;;5367499;26;20593;-77
2024/04/14 07:36:49;;;;;;;3.70;2.30;;;17.70;75.80;;;;;;5367705;26;20554;-79
2024/04/14 07:39:15;;;;;;;2.67;2.13;;;17.80;73.50;;;;;;5374016;26;20553;-79
2024/04/14 07:41:44;;;;;;;5.70;2.10;;;18.00;73.00;;;;;;5374843;26;20612;-79
2024/04/14 07:44:10;;;;;;;2.57;2.30;;;18.10;73.20;;;;;;5376095;26;20549;-78
2024/04/14 07:46:42;;;;;;;2.43;2.23;;;18.10;73.00;;;;;;5386983;26;20624;-78
2024/04/14 07:49:09;;;;;;;3.30;2.00;;;18.20;73.20;;;;;;5378407;26;20698;-78
2024/04/14 07:51:38;;;;;;;5.70;2.40;;;18.30;72.50;;;;;;5377707;26;20608;-78
2024/04/14 07:54:04;;;;;;;2.30;2.07;;;18.40;72.60;;;;;;5378703;26;20560;-78
2024/04/14 07:56:33;;;;;;;2.13;2.00;;;18.50;72.90;;;;;;5378347;26;20556;-76
2024/04/14 07:58:59;;;;;;;5.63;2.17;;;18.70;72.30;;;;;;5372607;26;21146;-78
2024/04/14 08:01:28;;;;;;;3.23;2.00;;;18.70;73.00;;;;;;5381099;26;20564;-78
2024/04/14 08:03:57;;;;;;;2.50;2.03;;;18.90;72.00;;;;;;5385291;26;20609;-78
2024/04/14 08:06:25;;;;;;;4.77;2.30;;;19.10;70.90;;;;;;5368546;26;20568;-78
2024/04/14 08:08:52;;;;;;;2.40;2.03;;;19.20;71.70;;;;;;5375159;26;20536;-78
2024/04/14 08:11:20;;;;;;;3.63;2.13;;;19.30;70.80;;;;;;5388129;26;20596;-78
2024/04/14 08:13:47;;;;;;;2.27;2.07;;;19.40;70.70;;;;;;5372988;26;20659;-78
2024/04/14 08:16:16;;;;;;;2.30;2.10;;;19.40;70.90;;;;;;5373289;26;20670;-78
2024/04/14 08:18:44;;;;;;;2.37;2.17;;;19.40;70.00;;;;;;5375608;26;20545;-78
2024/04/14 08:21:18;;;;;;;2.13;1.93;;;19.50;69.40;;;;;;5378074;26;21136;-78
2024/04/14 08:23:44;;;;;;;2.00;1.80;;;19.50;68.90;;;;;;5375103;26;20609;-78
2024/04/14 08:26:13;;;;;;;3.47;2.77;;;19.70;69.50;;;;;;5374770;26;21087;-78
2024/04/14 08:28:39;;;;;;;2.27;2.07;;;19.70;69.00;;;;;;5376726;26;20561;-78
2024/04/14 08:31:08;;;;;;;2.33;2.13;;;19.80;70.60;;;;;;5376389;26;20858;-78
2024/04/14 08:33:34;;;;;;;2.70;2.50;;;19.80;69.90;;;;;;5376414;26;20663;-78
2024/04/14 08:36:03;;;;;;;2.30;2.10;;;19.70;68.90;;;;;;5360390;26;20605;-78
2024/04/14 08:38:32;;;;;;;2.77;2.20;;;19.90;70.20;;;;;;5380416;26;20541;-79
2024/04/14 08:41:02;;;;;;;3.00;2.27;;;20.00;70.60;;;;;;5374803;26;20549;-76
2024/04/14 08:43:28;;;;;;;2.40;2.20;;;20.00;70.30;;;;;;5376160;26;20919;-77
2024/04/14 08:45:59;;;;;;;2.27;2.07;;;20.10;70.30;;;;;;5392365;26;21073;-78
2024/04/14 08:48:25;;;;;;;2.40;2.23;;;20.10;69.80;;;;;;5370435;26;20614;-78
2024/04/14 08:50:56;;;;;;;2.30;2.10;;;20.20;70.00;;;;;;5378018;26;21075;-78
2024/04/14 08:53:25;;;;;;;2.60;2.40;;;20.30;69.10;;;;;;5376181;26;21121;-77
2024/04/14 08:55:57;;;;;;;2.33;2.13;;;20.40;69.70;;;;;;5383365;26;20597;-77
2024/04/14 08:58:26;;;;;;;1.97;1.87;;;20.60;69.50;;;;;;5374108;26;20552;-78
2024/04/14 09:01:03;;;;;;;2.43;2.23;;;20.60;69.20;;;;;;5368420;26;21116;-76
2024/04/14 09:03:31;;;;;;;2.50;2.20;;;20.60;71.00;;;;;;5368924;26;20682;-77
2024/04/14 09:06:05;;;;;;;5.20;4.00;;;20.50;71.60;;;;;;5376670;26;20536;-77
2024/04/14 09:08:32;;;;;;;2.70;2.50;;;20.60;72.00;;;;;;5376330;26;20529;-77
2024/04/14 09:11:05;;;;;;;3.50;2.20;;;20.80;72.20;;;;;;5381627;26;20540;-76
2024/04/14 09:13:32;;;;;;;3.67;2.10;;;20.90;71.30;;;;;;5387221;26;20564;-77
2024/04/14 09:16:01;;;;;;;2.80;2.57;;;21.00;69.70;;;;;;5399672;26;21158;-77
2024/04/14 09:18:27;;;;;;;2.10;1.97;;;21.00;70.60;;;;;;5378015;26;20593;-77
2024/04/14 09:20:56;;;;;;;2.70;2.50;;;21.00;70.60;;;;;;5389385;26;20620;-77
2024/04/14 09:23:23;;;;;;;3.53;2.50;;;21.00;69.20;;;;;;5375458;26;20540;-77
2024/04/14 09:25:53;;;;;;;2.30;2.20;;;21.00;69.90;;;;;;5374687;26;20642;-77
2024/04/14 09:28:22;;;;;;;4.27;2.40;;;21.10;70.10;;;;;;5371665;26;20533;-77
2024/04/14 09:30:52;;;;;;;3.53;2.77;;;21.30;70.00;;;;;;5382321;26;20659;-77
2024/04/14 09:33:19;;;;;;;4.63;2.57;;;21.40;69.50;;;;;;5382133;26;20664;-77
2024/04/14 09:35:50;;;;;;;2.77;2.57;;;21.50;69.90;;;;;;5375340;26;21144;-77
2024/04/14 09:38:18;;;;;;;4.10;3.70;;;21.70;68.40;;;;;;5374740;26;20537;-77
2024/04/14 09:40:47;;;;;;;4.97;4.50;;;21.80;68.40;;;;;;5375953;26;20612;-77
2024/04/14 09:43:15;;;;;;;2.80;2.60;;;21.80;69.30;;;;;;5383284;26;20595;-77
2024/04/14 09:45:47;;;;;;;2.40;2.20;;;22.00;68.60;;;;;;5386306;26;20991;-77
2024/04/14 09:48:15;;;;;;;3.80;2.93;;;22.00;67.70;;;;;;5392341;26;20545;-77
2024/04/14 09:50:44;;;;;;;3.07;2.87;;;22.20;69.70;;;;;;5359305;26;20617;-77
2024/04/14 09:53:11;;;;;;;4.33;2.70;;;22.20;67.20;;;;;;5377406;26;20560;-77
2024/04/14 09:55:41;;;;;;;2.70;2.50;;;22.20;67.10;;;;;;5386848;26;20553;-77
2024/04/14 09:58:08;;;;;;;2.83;2.63;;;22.20;68.30;;;;;;5379372;26;20597;-78
2024/04/14 10:00:37;;;;;;;2.80;2.60;;;22.30;68.90;;;;;;5391862;26;20556;-78
2024/04/14 10:03:09;;;;;;;2.53;2.33;;;22.40;67.10;;;;;;5378840;26;20612;-77
2024/04/14 10:05:40;;;;;;;2.93;2.73;;;22.60;67.70;;;;;;5378773;26;21024;-77
2024/04/14 10:08:08;;;;;;;3.50;3.20;;;22.70;67.70;;;;;;5387735;26;20689;-77
2024/04/14 10:10:37;;;;;;;3.10;2.90;;;22.70;68.10;;;;;;5379031;26;20562;-78
2024/04/14 10:13:07;;;;;;;3.13;2.90;;;22.60;69.10;;;;;;5394504;26;20540;-78
2024/04/14 10:15:36;;;;;;;4.20;3.13;;;22.80;67.70;;;;;;5387528;26;20587;-77
2024/04/14 10:18:09;;;;;;;3.47;3.13;;;22.70;67.80;;;;;;5390111;26;20555;-77
2024/04/14 10:20:44;;;;;;;3.40;3.10;;;22.90;67.70;;;;;;5387908;26;21218;-78
2024/04/14 10:23:15;;;;;;;2.80;2.60;;;23.00;65.40;;;;;;5394915;26;21256;-78
2024/04/14 10:25:49;;;;;;;4.20;3.03;;;23.10;65.80;;;;;;5386592;26;20633;-78
2024/04/14 10:28:17;;;;;;;3.73;3.30;;;23.30;65.00;;;;;;5384932;26;21022;-78
2024/04/14 10:30:48;;;;;;;2.50;2.30;;;23.40;66.50;;;;;;5378047;26;20544;-77
2024/04/14 10:33:23;;;;;;;6.33;3.50;;;23.60;65.10;;;;;;5383680;26;20545;-78
2024/04/14 10:36:03;;;;;;;3.00;2.80;;;23.70;66.10;;;;;;5386693;26;20939;-78
2024/04/14 10:38:30;;;;;;;3.30;2.70;;;23.70;67.10;;;;;;5378196;26;20568;-78
2024/04/14 10:40:59;;;;;;;3.17;2.87;;;23.70;67.40;;;;;;5378670;26;20634;-78
2024/04/14 10:43:25;;;;;;;2.93;2.70;;;23.60;67.60;;;;;;5380964;26;20663;-78
2024/04/14 10:45:54;;;;;;;3.20;3.00;;;23.60;67.40;;;;;;5379475;26;20736;-77
2024/04/14 10:48:23;;;;;;;3.20;2.97;;;23.70;67.90;;;;;;5368338;26;20979;-78
2024/04/14 10:50:52;;;;;;;3.47;3.17;;;23.60;67.70;;;;;;5379459;26;20605;-78
2024/04/14 10:53:18;;;;;;;3.93;3.17;;;23.50;69.40;;;;;;5383005;26;20601;-77
2024/04/14 10:55:47;;;;;;;4.00;3.40;;;23.80;67.10;;;;;;5365132;26;20645;-78
2024/04/14 10:58:13;;;;;;;3.10;2.80;;;23.90;68.40;;;;;;5364273;26;20604;-77
2024/04/14 11:00:43;;;;;;;3.47;3.17;;;23.90;68.60;;;;;;5378169;26;20556;-78
2024/04/14 11:03:09;;;;;;;3.30;3.00;;;23.90;67.90;;;;;;5376430;26;21005;-78
2024/04/14 11:05:41;;;;;;;3.03;2.77;;;23.90;67.30;;;;;;5378467;26;20616;-78
2024/04/14 11:08:11;;;;;;;3.37;2.63;;;24.10;67.30;;;;;;5382308;26;20541;-78
2024/04/14 11:10:41;;;;;;;2.90;2.70;;;24.30;68.40;;;;;;5383390;26;20652;-78
2024/04/14 11:13:09;;;;;;;3.13;2.93;;;24.40;68.30;;;;;;5378459;26;20541;-78
2024/04/14 11:15:40;;;;;;;3.10;2.90;;;24.50;68.50;;;;;;5377615;26;20557;-78
2024/04/14 11:18:07;;;;;;;3.20;3.00;;;24.30;66.80;;;;;;5377496;26;21153;-78
2024/04/14 11:20:36;;;;;;;5.00;3.37;;;24.30;67.80;;;;;;5366240;26;20565;-78
2024/04/14 11:23:06;;;;;;;3.77;3.23;;;24.40;67.20;;;;;;5370801;26;21061;-78
2024/04/14 11:25:35;;;;;;;3.20;3.00;;;24.50;68.10;;;;;;5374678;26;21034;-78
2024/04/14 11:28:01;;;;;;;2.60;2.40;;;24.10;67.90;;;;;;5378581;26;21018;-78
2024/04/14 11:30:32;;;;;;;3.33;3.13;;;24.30;67.40;;;;;;5380804;26;20673;-78
2024/04/14 11:33:00;;;;;;;5.10;3.17;;;24.80;68.20;;;;;;5378038;26;20656;-78
2024/04/14 11:35:30;;;;;;;3.27;3.07;;;25.00;67.40;;;;;;5366516;26;20556;-78
2024/04/14 11:37:57;;;;;;;3.80;3.50;;;24.90;66.40;;;;;;5389319;26;20545;-78
2024/04/14 11:40:30;;;;;;;3.43;3.00;;;25.00;67.30;;;;;;5389434;26;20624;-78
2024/04/14 11:42:56;;;;;;;3.60;2.90;;;25.30;66.60;;;;;;5379574;26;21120;-78
2024/04/14 11:45:25;;;;;;;3.30;3.00;;;25.40;65.00;;;;;;5399491;26;20620;-78
2024/04/14 11:47:51;;;;;;;3.40;3.10;;;25.60;64.90;;;;;;5376609;26;20593;-78
2024/04/14 11:50:20;;;;;;;3.80;3.37;;;25.70;64.80;;;;;;5380293;26;21004;-78
2024/04/14 11:52:46;;;;;;;3.07;2.33;;;25.70;63.50;;;;;;5377096;26;20541;-78
2024/04/14 11:55:15;;;;;;;3.53;3.23;;;25.90;65.30;;;;;;5368444;26;20605;-79
2024/04/14 11:57:44;;;;;;;3.13;2.90;;;26.50;62.00;;;;;;5377260;26;20564;-78
2024/04/14 12:00:13;;;;;;;3.13;2.57;;;26.70;62.10;;;;;;5392148;26;20604;-78
2024/04/14 12:02:40;;;;;;;3.03;2.73;;;26.50;62.90;;;;;;5376689;26;20597;-79
2024/04/14 12:05:09;;;;;;;3.10;2.90;;;27.10;60.70;;;;;;5376136;26;20549;-79
2024/04/14 12:07:36;;;;;;;2.60;2.40;;;27.50;60.30;;;;;;5376017;26;20560;-77
2024/04/14 12:10:05;;;;;;;3.67;3.30;;;27.90;59.90;;;;;;5379096;26;21138;-77
2024/04/14 12:12:31;;;;;;;2.50;2.30;;;28.10;58.60;;;;;;5378978;26;20569;-78
2024/04/14 12:15:04;;;;;;;2.53;2.40;;;27.90;57.80;;;;;;5384560;26;20609;-77
2024/04/14 12:17:30;;;;;;;3.00;2.80;;;27.80;58.50;;;;;;5376271;26;20567;-78
2024/04/14 12:19:59;;;;;;;2.23;2.10;;;27.60;58.30;;;;;;5364840;26;20570;-77
2024/04/14 12:22:25;;;;;;;2.57;2.37;;;27.30;58.50;;;;;;5379324;26;20576;-77
2024/04/14 12:24:54;;;;;;;2.50;2.37;;;26.80;58.20;;;;;;5388415;26;20545;-77
2024/04/14 12:27:20;;;;;;;3.20;2.60;;;26.50;59.90;;;;;;5376373;26;20541;-78
2024/04/14 12:29:49;;;;;;;3.10;2.80;;;26.70;59.30;;;;;;5381082;26;20944;-78
2024/04/14 12:32:18;;;;;;;2.60;2.40;;;26.50;59.50;;;;;;5378675;26;20585;-78
2024/04/14 12:34:47;;;;;;;3.30;3.00;;;26.30;58.60;;;;;;5377528;26;20600;-78
2024/04/14 12:37:13;;;;;;;2.80;2.60;;;26.20;59.10;;;;;;5376171;26;21088;-78
2024/04/14 12:39:42;;;;;;;3.00;2.70;;;26.00;59.70;;;;;;5367680;26;20562;-78
2024/04/14 12:42:08;;;;;;;2.57;2.37;;;26.20;60.40;;;;;;5372449;26;20624;-78
2024/04/14 12:44:37;;;;;;;3.87;3.20;;;26.50;59.20;;;;;;5391062;26;20704;-78
2024/04/14 12:47:04;;;;;;;2.83;2.63;;;27.00;58.30;;;;;;5379459;26;20585;-78
2024/04/14 12:49:35;;;;;;;3.00;2.80;;;26.90;58.30;;;;;;5398524;26;20559;-78
2024/04/14 12:52:01;;;;;;;2.70;2.50;;;27.10;59.00;;;;;;5376389;26;20597;-77
2024/04/14 12:54:30;;;;;;;2.93;2.73;;;27.60;57.70;;;;;;5376162;26;20592;-78